Time;durP1;ratioP1;P1;durP2;ratioP2;P2;SDS_P1;SDS_P2;PMS_P1;PMS_P2;Temp;Humidity;BMP_temperature;BMP_pressure;BME280_temperature;BME280_humidity;BME280_pressure;Samples;Min_cycle;Max_cycle;Signal;HPM_P1;HPM_P2
2023/04/07 00:00:41;;;;;;;1999.90;999.90;;;5.60;99.90;;;;;;5035613;28;20040;-76
2023/04/07 00:03:07;;;;;;;1999.90;999.90;;;5.50;99.90;;;;;;5033178;28;20096;-76
2023/04/07 00:05:33;;;;;;;1999.90;999.90;;;5.50;99.90;;;;;;5031127;28;20829;-77
2023/04/07 00:07:59;;;;;;;1999.90;999.90;;;5.50;99.90;;;;;;5031588;28;20036;-77
2023/04/07 00:10:25;;;;;;;1999.90;999.90;;;5.50;99.90;;;;;;5033950;28;20025;-76
2023/04/07 00:12:51;;;;;;;1999.90;999.90;;;5.50;99.90;;;;;;5027286;28;20456;-77
2023/04/07 00:15:16;;;;;;;1999.90;999.90;;;5.50;99.90;;;;;;5033380;28;20060;-76
2023/04/07 00:17:42;;;;;;;1999.90;999.90;;;5.40;99.90;;;;;;5013560;28;20068;-76
2023/04/07 00:20:08;;;;;;;1999.90;999.90;;;5.50;99.90;;;;;;5037164;28;20032;-76
2023/04/07 00:22:35;;;;;;;1999.90;999.90;;;5.50;99.90;;;;;;5031553;28;20684;-77
2023/04/07 00:25:00;;;;;;;1999.90;999.90;;;5.40;99.90;;;;;;5031863;28;20029;-77
2023/04/07 00:27:26;;;;;;;1999.90;999.90;;;5.50;99.90;;;;;;5034388;28;20037;-76
2023/04/07 00:29:54;;;;;;;1999.90;999.90;;;5.50;99.90;;;;;;5032104;28;20116;-77
2023/04/07 00:32:22;;;;;;;1999.90;999.90;;;5.50;99.90;;;;;;5031921;28;20507;-76
2023/04/07 00:34:48;;;;;;;1999.90;999.90;;;5.50;99.90;;;;;;5032208;28;20053;-76
2023/04/07 00:37:14;;;;;;;1999.90;999.90;;;5.40;99.90;;;;;;5037447;28;20079;-75
2023/04/07 00:39:40;;;;;;;1999.90;999.90;;;5.30;99.90;;;;;;5032536;28;20146;-76
2023/04/07 00:42:06;;;;;;;1999.90;999.90;;;5.20;99.90;;;;;;5017230;28;20498;-77
2023/04/07 00:44:33;;;;;;;1999.90;999.90;;;5.40;99.90;;;;;;5049281;28;20017;-77
2023/04/07 00:46:59;;;;;;;1999.90;999.90;;;5.40;99.90;;;;;;5033558;28;20040;-76
2023/04/07 00:49:27;;;;;;;1999.90;999.90;;;5.30;99.90;;;;;;5048401;28;20057;-77
2023/04/07 00:51:54;;;;;;;1999.90;999.90;;;5.30;99.90;;;;;;5036246;28;20131;-76
2023/04/07 00:54:22;;;;;;;1999.90;999.90;;;5.40;99.90;;;;;;5031625;28;20036;-76
2023/04/07 00:56:47;;;;;;;1999.90;999.90;;;5.40;99.90;;;;;;5031632;28;20033;-76
2023/04/07 00:59:13;;;;;;;1999.90;999.90;;;5.40;99.90;;;;;;5033678;28;20546;-77
2023/04/07 01:01:54;;;;;;;1999.90;999.90;;;5.30;99.90;;;;;;5039263;28;20037;-77
2023/04/07 01:04:23;;;;;;;1999.90;999.90;;;5.30;99.90;;;;;;5033927;28;20035;-76
2023/04/07 01:06:54;;;;;;;1999.90;999.90;;;5.30;99.90;;;;;;5036883;28;20030;-77
2023/04/07 01:09:26;;;;;;;1999.90;999.90;;;5.30;99.90;;;;;;5030924;28;20025;-77
2023/04/07 01:12:06;;;;;;;1999.90;999.90;;;5.30;99.90;;;;;;5033353;28;20083;-76
2023/04/07 01:14:37;;;;;;;1999.90;999.90;;;5.30;99.90;;;;;;5030708;28;20033;-76
2023/04/07 01:17:06;;;;;;;1999.90;999.90;;;5.30;99.90;;;;;;5034539;28;20041;-77
2023/04/07 01:19:47;;;;;;;1999.90;999.90;;;5.40;99.90;;;;;;5031301;28;20533;-76
2023/04/07 01:22:21;;;;;;;1999.90;999.90;;;5.40;99.90;;;;;;5034196;28;20030;-78
2023/04/07 01:25:31;;;;;;;1999.90;999.90;;;5.30;99.90;;;;;;5031272;28;20083;-76
2023/04/07 01:27:59;;;;;;;1999.90;999.90;;;5.20;99.90;;;;;;5019108;28;20065;-76
2023/04/07 01:30:29;;;;;;;1999.90;999.90;;;5.10;99.90;;;;;;5033642;28;20029;-76
2023/04/07 01:32:58;;;;;;;1999.90;999.90;;;5.10;99.90;;;;;;5031704;28;20502;-77
2023/04/07 01:35:31;;;;;;;1999.90;999.90;;;5.10;99.90;;;;;;5030508;28;20095;-76
2023/04/07 01:37:59;;;;;;;1999.90;999.90;;;5.20;99.90;;;;;;5030182;28;20037;-76
2023/04/07 01:40:25;;;;;;;1999.90;999.90;;;5.00;99.90;;;;;;5036298;28;20041;-76
2023/04/07 01:42:52;;;;;;;1999.90;999.90;;;5.10;99.90;;;;;;5033480;28;20124;-76
2023/04/07 01:45:19;;;;;;;1999.90;999.90;;;5.10;99.90;;;;;;5034682;28;20028;-77
2023/04/07 01:47:45;;;;;;;1999.90;999.90;;;5.10;99.90;;;;;;5036287;28;20021;-76
2023/04/07 01:50:12;;;;;;;1999.90;999.90;;;5.10;99.90;;;;;;5037796;28;20029;-76
2023/04/07 01:52:39;;;;;;;1999.90;999.90;;;5.10;99.90;;;;;;5049550;28;20067;-76
2023/04/07 01:55:05;;;;;;;1999.90;999.90;;;5.10;99.90;;;;;;5054226;28;20038;-76
2023/04/07 01:57:31;;;;;;;1999.90;999.90;;;5.10;99.90;;;;;;5034168;28;20033;-77
2023/04/07 01:59:58;;;;;;;1999.90;999.90;;;5.10;99.90;;;;;;5035600;28;20032;-76
2023/04/07 02:02:23;;;;;;;1999.90;999.90;;;5.10;99.90;;;;;;5016397;28;20038;-77
2023/04/07 02:04:56;;;;;;;1999.90;999.90;;;5.20;99.90;;;;;;5039580;28;20029;-77
2023/04/07 02:07:30;;;;;;;1999.90;999.90;;;5.10;99.90;;;;;;5032301;28;20117;-77
2023/04/07 02:09:59;;;;;;;1999.90;999.90;;;5.10;99.90;;;;;;5033918;28;20060;-76
2023/04/07 02:12:27;;;;;;;1999.90;999.90;;;5.00;99.90;;;;;;5034749;28;20033;-76
2023/04/07 02:14:55;;;;;;;1999.90;999.90;;;5.00;99.90;;;;;;5047005;28;20069;-77
2023/04/07 02:17:23;;;;;;;1999.90;999.90;;;5.00;99.90;;;;;;5032207;28;20045;-75
2023/04/07 02:19:51;;;;;;;1999.90;999.90;;;5.00;99.90;;;;;;5034125;28;20119;-77
2023/04/07 02:22:17;;;;;;;1999.90;999.90;;;5.10;99.90;;;;;;5027470;28;20125;-77
2023/04/07 02:24:43;;;;;;;1999.90;999.90;;;5.10;99.90;;;;;;5033084;28;20044;-75
2023/04/07 02:27:09;;;;;;;1999.90;999.90;;;5.10;99.90;;;;;;5032562;28;20029;-77
2023/04/07 02:29:35;;;;;;;1999.90;999.90;;;5.20;99.90;;;;;;5034479;28;20045;-78
2023/04/07 02:32:01;;;;;;;1999.90;999.90;;;5.10;99.90;;;;;;5035418;28;20522;-76
2023/04/07 02:34:26;;;;;;;1999.90;999.90;;;5.10;99.90;;;;;;5034721;28;20061;-78
2023/04/07 02:36:52;;;;;;;1999.90;999.90;;;5.30;99.90;;;;;;5034299;28;20029;-76
2023/04/07 02:39:17;;;;;;;1999.90;999.90;;;5.30;99.90;;;;;;5033086;28;20025;-77
2023/04/07 02:41:43;;;;;;;1999.90;999.90;;;5.30;99.90;;;;;;5040570;28;20044;-79
2023/04/07 02:44:09;;;;;;;1999.90;999.90;;;5.30;99.90;;;;;;5033788;28;20035;-76
2023/04/07 02:46:34;;;;;;;1999.90;999.90;;;5.30;99.90;;;;;;5036213;28;20033;-78
2023/04/07 02:49:01;;;;;;;1999.90;999.90;;;5.20;99.90;;;;;;5038359;28;20083;-77
2023/04/07 02:51:27;;;;;;;1999.90;999.90;;;5.20;99.90;;;;;;5039705;28;20033;-76
2023/04/07 02:53:53;;;;;;;1999.90;999.90;;;5.20;99.90;;;;;;5034542;28;20053;-76
2023/04/07 02:56:19;;;;;;;1999.90;999.90;;;5.30;99.90;;;;;;5035351;28;20560;-76
2023/04/07 02:58:44;;;;;;;1999.90;999.90;;;5.30;99.90;;;;;;5037838;28;20479;-78
2023/04/07 03:01:10;;;;;;;1999.90;999.90;;;5.20;99.90;;;;;;5038232;28;20072;-76
2023/04/07 03:03:36;;;;;;;1999.90;999.90;;;5.10;99.90;;;;;;5036200;28;20793;-76
2023/04/07 03:06:02;;;;;;;1999.90;999.90;;;5.10;99.90;;;;;;5039581;28;20091;-76
2023/04/07 03:08:27;;;;;;;1999.90;999.90;;;5.10;99.90;;;;;;5031708;28;20025;-76
2023/04/07 03:10:53;;;;;;;1999.90;999.90;;;5.20;99.90;;;;;;5037912;28;20537;-76
2023/04/07 03:13:20;;;;;;;1999.90;999.90;;;5.20;99.90;;;;;;5032165;28;20072;-76
2023/04/07 03:15:46;;;;;;;1999.90;999.90;;;5.20;99.90;;;;;;5034485;28;20026;-76
2023/04/07 03:18:12;;;;;;;1999.90;999.90;;;5.20;99.90;;;;;;5032394;28;20021;-77
2023/04/07 03:20:37;;;;;;;1999.90;999.90;;;5.20;99.90;;;;;;5039135;28;20029;-76
2023/04/07 03:23:03;;;;;;;1999.90;999.90;;;5.20;99.90;;;;;;5033159;28;20438;-77
2023/04/07 03:25:29;;;;;;;1999.90;999.90;;;5.20;99.90;;;;;;5038458;28;20533;-76
2023/04/07 03:27:55;;;;;;;1999.90;999.90;;;5.20;99.90;;;;;;5034562;28;20021;-76
2023/04/07 03:30:20;;;;;;;1999.90;999.90;;;5.30;99.90;;;;;;5040522;28;20042;-77
2023/04/07 03:32:46;;;;;;;1999.90;999.90;;;5.30;99.90;;;;;;5034657;28;20049;-76
2023/04/07 03:35:11;;;;;;;1999.90;999.90;;;5.30;99.90;;;;;;5034636;28;20049;-78
2023/04/07 03:37:37;;;;;;;1999.90;999.90;;;5.30;99.90;;;;;;5037115;28;20037;-78
2023/04/07 03:40:03;;;;;;;1999.90;999.90;;;5.40;99.90;;;;;;5036519;28;20120;-76
2023/04/07 03:42:29;;;;;;;1999.90;999.90;;;5.40;99.90;;;;;;5032277;28;20156;-79
2023/04/07 03:44:54;;;;;;;1999.90;999.90;;;5.50;99.90;;;;;;5039122;28;20144;-77
2023/04/07 03:47:21;;;;;;;1999.90;999.90;;;5.30;99.90;;;;;;5028688;28;20798;-76
2023/04/07 03:49:47;;;;;;;1999.90;999.90;;;5.20;99.90;;;;;;5041013;28;20041;-77
2023/04/07 03:52:12;;;;;;;1999.90;999.90;;;5.20;99.90;;;;;;5034574;28;20561;-79
2023/04/07 03:54:38;;;;;;;1999.90;999.90;;;5.30;99.90;;;;;;5034281;28;20033;-76
2023/04/07 03:57:04;;;;;;;1999.90;999.90;;;5.40;99.90;;;;;;5032539;28;20087;-77
2023/04/07 03:59:29;;;;;;;1999.90;999.90;;;5.50;99.90;;;;;;5020281;28;20041;-76
2023/04/07 04:01:55;;;;;;;1999.90;999.90;;;5.50;99.90;;;;;;5031348;28;20036;-77
2023/04/07 04:04:23;;;;;;;1999.90;999.90;;;5.50;99.90;;;;;;5037023;28;20034;-77
2023/04/07 04:06:49;;;;;;;1999.90;999.90;;;5.50;99.90;;;;;;5036191;28;20399;-76
2023/04/07 04:09:15;;;;;;;1999.90;999.90;;;5.60;99.90;;;;;;5036969;28;20029;-78
2023/04/07 04:11:41;;;;;;;1999.90;999.90;;;5.60;99.90;;;;;;5035135;28;20063;-78
2023/04/07 04:14:06;;;;;;;1999.90;999.90;;;5.60;99.90;;;;;;5035270;28;20060;-79
2023/04/07 04:16:34;;;;;;;1999.90;999.90;;;5.50;99.90;;;;;;5044474;28;20036;-77
2023/04/07 04:19:00;;;;;;;1999.90;999.90;;;5.40;99.90;;;;;;5037116;28;20038;-77
2023/04/07 04:21:26;;;;;;;1999.90;999.90;;;5.40;99.90;;;;;;5038344;28;20049;-77
2023/04/07 04:23:52;;;;;;;1999.90;999.90;;;5.50;99.90;;;;;;5034860;28;20029;-77
2023/04/07 04:26:17;;;;;;;1999.90;999.90;;;5.40;99.90;;;;;;5033007;28;20061;-76
2023/04/07 04:28:43;;;;;;;1999.90;999.90;;;5.30;99.90;;;;;;5034618;28;20033;-77
2023/04/07 04:31:09;;;;;;;1999.90;999.90;;;5.40;99.90;;;;;;5036526;28;20467;-78
2023/04/07 04:33:35;;;;;;;1999.90;999.90;;;5.40;99.90;;;;;;5030109;28;20044;-77
2023/04/07 04:36:00;;;;;;;1999.90;999.90;;;5.50;99.90;;;;;;5033229;28;20385;-78
2023/04/07 04:38:26;;;;;;;1999.90;999.90;;;5.50;99.90;;;;;;5033312;28;20406;-77
2023/04/07 04:40:52;;;;;;;1999.90;999.90;;;5.30;99.90;;;;;;5034182;28;20458;-77
2023/04/07 04:43:17;;;;;;;1999.90;999.90;;;5.30;99.90;;;;;;5030432;28;20500;-77
2023/04/07 04:45:43;;;;;;;1999.90;999.90;;;5.20;99.90;;;;;;5037440;28;20108;-77
2023/04/07 04:48:09;;;;;;;1999.90;999.90;;;5.20;99.90;;;;;;5034493;28;20029;-76
2023/04/07 04:50:35;;;;;;;1999.90;999.90;;;5.10;99.90;;;;;;5033650;28;20040;-77
2023/04/07 04:53:01;;;;;;;1999.90;999.90;;;5.30;99.90;;;;;;5033719;28;20033;-77
2023/04/07 04:55:27;;;;;;;1999.90;999.90;;;5.40;99.90;;;;;;5029448;28;20025;-76
2023/04/07 04:57:53;;;;;;;1999.90;999.90;;;5.40;99.90;;;;;;5029686;28;20116;-77
2023/04/07 05:00:19;;;;;;;1999.90;999.90;;;5.40;99.90;;;;;;5033476;28;20033;-76
2023/04/07 05:02:45;;;;;;;1999.90;999.90;;;5.40;99.90;;;;;;5034046;28;20557;-77
2023/04/07 05:05:11;;;;;;;1999.90;999.90;;;5.30;99.90;;;;;;5048036;28;20345;-77
2023/04/07 05:07:39;;;;;;;1999.90;999.90;;;5.40;99.90;;;;;;5037120;28;20570;-77
2023/04/07 05:10:06;;;;;;;1999.90;999.90;;;5.40;99.90;;;;;;5033797;28;20056;-77
2023/04/07 05:12:32;;;;;;;1999.90;999.90;;;5.40;99.90;;;;;;5036646;28;20583;-77
2023/04/07 05:14:57;;;;;;;1999.90;999.90;;;5.40;99.90;;;;;;5034003;28;20112;-77
2023/04/07 05:17:23;;;;;;;1999.90;999.90;;;5.50;99.90;;;;;;5033748;28;20047;-77
2023/04/07 05:19:49;;;;;;;1999.90;999.90;;;5.50;99.90;;;;;;5031378;28;20041;-76
2023/04/07 05:22:15;;;;;;;1999.90;999.90;;;5.50;99.90;;;;;;5016828;28;20037;-77
2023/04/07 05:24:40;;;;;;;1999.90;999.90;;;5.50;99.90;;;;;;5033057;28;20083;-77
2023/04/07 05:27:06;;;;;;;1999.90;999.90;;;5.50;99.90;;;;;;5033613;28;20053;-77
2023/04/07 05:29:32;;;;;;;1999.90;999.90;;;5.50;99.90;;;;;;5034665;28;20039;-77
2023/04/07 05:31:58;;;;;;;1999.90;999.90;;;5.50;99.90;;;;;;5049699;28;20491;-77
2023/04/07 05:34:23;;;;;;;1999.90;999.90;;;5.50;99.90;;;;;;5031282;28;20061;-76
2023/04/07 05:36:49;;;;;;;1999.90;999.90;;;5.30;99.90;;;;;;5034166;28;20037;-77
2023/04/07 05:39:15;;;;;;;1999.90;999.90;;;5.30;99.90;;;;;;5025396;28;20111;-77
2023/04/07 05:41:41;;;;;;;1999.90;999.90;;;5.40;99.90;;;;;;5032269;28;20037;-76
2023/04/07 05:44:06;;;;;;;1999.90;999.90;;;5.40;99.90;;;;;;5027755;28;20037;-77
2023/04/07 05:46:32;;;;;;;1999.90;999.90;;;5.40;99.90;;;;;;5033286;28;20419;-77
2023/04/07 05:48:58;;;;;;;1999.90;999.90;;;5.40;99.90;;;;;;5029010;28;20060;-76
2023/04/07 05:51:25;;;;;;;1999.90;999.90;;;5.30;99.90;;;;;;5027516;28;20487;-77
2023/04/07 05:53:50;;;;;;;1999.90;999.90;;;5.30;99.90;;;;;;5029471;28;20045;-78
2023/04/07 05:56:16;;;;;;;1999.90;999.90;;;5.40;99.90;;;;;;5030423;28;20034;-76
2023/04/07 05:58:42;;;;;;;1999.90;999.90;;;5.50;99.90;;;;;;5036648;28;20067;-78
2023/04/07 06:01:07;;;;;;;1999.90;999.90;;;5.60;99.90;;;;;;5030485;28;20052;-77
2023/04/07 06:03:33;;;;;;;1999.90;999.90;;;5.60;99.90;;;;;;5029830;28;20037;-77
2023/04/07 06:05:59;;;;;;;1999.90;999.90;;;5.70;99.90;;;;;;5035964;28;20079;-77
2023/04/07 06:08:25;;;;;;;1999.90;999.90;;;5.80;99.90;;;;;;5030381;28;20539;-76
2023/04/07 06:10:50;;;;;;;1999.90;999.90;;;6.00;99.90;;;;;;5026012;28;20120;-78
2023/04/07 06:13:16;;;;;;;1999.90;999.90;;;5.90;99.90;;;;;;5031134;28;20035;-78
2023/04/07 06:15:42;;;;;;;1999.90;999.90;;;6.10;99.90;;;;;;5026752;28;20037;-77
2023/04/07 06:18:08;;;;;;;1999.90;999.90;;;6.20;99.90;;;;;;5040043;28;20052;-79
2023/04/07 06:20:34;;;;;;;1999.90;999.90;;;6.20;99.90;;;;;;5022734;28;20026;-77
2023/04/07 06:23:00;;;;;;;1999.90;999.90;;;6.20;99.90;;;;;;5038389;28;20033;-77
2023/04/07 06:25:25;;;;;;;1999.90;999.90;;;6.30;99.90;;;;;;5033789;28;20032;-77
2023/04/07 06:27:53;;;;;;;1999.90;999.90;;;6.60;99.90;;;;;;5035657;28;20038;-79
2023/04/07 06:30:19;;;;;;;1999.90;999.90;;;6.60;99.90;;;;;;5037971;28;20037;-77
2023/04/07 06:32:45;;;;;;;1999.90;999.90;;;6.90;99.90;;;;;;5037831;28;20091;-78
2023/04/07 06:35:11;;;;;;;1999.90;999.90;;;6.70;99.90;;;;;;5033106;28;20052;-77
2023/04/07 06:37:38;;;;;;;1999.90;999.90;;;6.60;99.90;;;;;;5031450;28;20033;-77
2023/04/07 06:40:05;;;;;;;1999.90;999.90;;;6.60;99.90;;;;;;5047917;28;20064;-77
2023/04/07 06:42:30;;;;;;;1999.90;999.90;;;6.80;99.90;;;;;;5038209;28;20030;-77
2023/04/07 06:44:56;;;;;;;1999.90;999.90;;;7.00;99.90;;;;;;5031664;28;20487;-76
2023/04/07 06:47:22;;;;;;;1999.90;999.90;;;6.90;99.90;;;;;;5030840;28;20044;-76
2023/04/07 06:49:47;;;;;;;1999.90;999.90;;;6.60;99.90;;;;;;5032162;28;20038;-77
2023/04/07 06:52:13;;;;;;;1999.90;999.90;;;7.00;99.90;;;;;;5033913;28;20056;-80
2023/04/07 06:54:39;;;;;;;1999.90;999.90;;;7.40;99.90;;;;;;5044580;28;20152;-78
2023/04/07 06:57:10;;;;;;;1999.90;999.90;;;7.30;99.90;;;;;;5030586;28;20113;-77
2023/04/07 06:59:39;;;;;;;1999.90;999.90;;;7.40;99.90;;;;;;5034570;28;20164;-76
2023/04/07 07:02:06;;;;;;;1999.90;999.90;;;7.60;99.90;;;;;;5033033;28;20030;-80
2023/04/07 07:04:32;;;;;;;1999.90;999.90;;;7.80;99.90;;;;;;5031502;28;20026;-81
2023/04/07 07:06:58;;;;;;;1999.90;999.90;;;7.80;99.90;;;;;;5027769;28;20483;-79
2023/04/07 07:09:25;;;;;;;1999.90;999.90;;;7.80;99.90;;;;;;5031803;28;20037;-79
2023/04/07 07:11:51;;;;;;;1999.90;999.90;;;8.00;99.90;;;;;;5030987;28;20037;-80
2023/04/07 07:14:16;;;;;;;1999.90;999.90;;;8.00;99.90;;;;;;5041678;28;20035;-81
2023/04/07 07:16:42;;;;;;;1999.90;999.90;;;8.10;99.90;;;;;;5039984;28;20039;-83
2023/04/07 07:19:08;;;;;;;1999.90;999.90;;;8.30;99.90;;;;;;5026970;28;20495;-81
2023/04/07 07:21:34;;;;;;;1999.90;999.90;;;8.30;99.90;;;;;;5026929;28;20128;-80
2023/04/07 07:23:59;;;;;;;1999.90;999.90;;;8.30;99.90;;;;;;5029801;28;20117;-80
2023/04/07 07:26:26;;;;;;;1999.90;999.90;;;8.30;99.90;;;;;;5031996;28;20037;-80
2023/04/07 07:28:51;;;;;;;1999.90;999.90;;;8.30;99.90;;;;;;5030158;28;20396;-79
2023/04/07 07:31:17;;;;;;;1999.90;999.90;;;8.50;99.90;;;;;;5026706;28;20029;-79
2023/04/07 07:33:44;;;;;;;1999.90;999.90;;;8.70;99.90;;;;;;5024862;28;20414;-80
2023/04/07 07:36:10;;;;;;;1999.90;999.90;;;8.90;99.90;;;;;;5027262;28;20053;-81
2023/04/07 07:38:36;;;;;;;1999.90;999.90;;;8.90;99.90;;;;;;5035008;28;20029;-85
2023/04/07 07:41:02;;;;;;;1999.90;999.90;;;9.20;99.90;;;;;;5027326;28;20116;-81
2023/04/07 07:43:28;;;;;;;1999.90;999.90;;;9.00;99.90;;;;;;5026872;28;20092;-83
2023/04/07 07:45:54;;;;;;;1999.90;999.90;;;9.10;99.90;;;;;;5028586;28;20787;-79
2023/04/07 07:48:19;;;;;;;1999.90;999.90;;;9.20;99.90;;;;;;5024240;28;20022;-84
2023/04/07 07:50:45;;;;;;;1999.90;999.90;;;9.30;99.90;;;;;;5029605;28;20484;-81
2023/04/07 07:53:11;;;;;;;1999.90;999.90;;;9.20;99.90;;;;;;5029131;28;20416;-80
2023/04/07 07:55:37;;;;;;;1999.90;999.90;;;9.10;99.90;;;;;;5026658;28;20087;-81
2023/04/07 07:58:03;;;;;;;1999.90;999.90;;;9.10;99.90;;;;;;5032109;28;20045;-83
2023/04/07 08:00:32;;;;;;;1999.90;999.90;;;9.20;99.90;;;;;;5044234;28;20045;-80
2023/04/07 08:02:57;;;;;;;1999.90;999.90;;;9.40;99.90;;;;;;5007040;28;20053;-81
2023/04/07 08:05:23;;;;;;;1999.90;999.90;;;9.70;99.90;;;;;;5026824;28;20030;-81
2023/04/07 08:07:50;;;;;;;1999.90;999.90;;;10.10;99.90;;;;;;5020135;28;20124;-81
2023/04/07 08:10:16;;;;;;;1999.90;999.90;;;10.40;99.90;;;;;;5023787;28;20072;-80
2023/04/07 08:12:41;;;;;;;1999.90;999.90;;;10.20;99.90;;;;;;5046226;28;20045;-78
2023/04/07 08:15:09;;;;;;;1999.90;999.90;;;9.90;99.90;;;;;;5027713;28;20041;-82
2023/04/07 08:17:35;;;;;;;1999.90;999.90;;;10.00;99.90;;;;;;5026436;28;20025;-81
2023/04/07 08:20:02;;;;;;;1999.90;999.90;;;10.00;99.90;;;;;;5024326;28;20041;-84
2023/04/07 08:22:28;;;;;;;1999.90;999.90;;;9.70;99.90;;;;;;5049023;28;20676;-82
2023/04/07 08:24:54;;;;;;;1999.90;999.90;;;9.40;99.90;;;;;;5028846;28;20029;-79
2023/04/07 08:27:20;;;;;;;1999.90;999.90;;;9.30;99.90;;;;;;5029635;28;20116;-81
2023/04/07 08:29:57;;;;;;;1999.90;999.90;;;9.40;99.90;;;;;;5049019;28;20039;-84
2023/04/07 08:32:22;;;;;;;1999.90;999.90;;;9.50;99.90;;;;;;5032340;28;20032;-84
2023/04/07 08:34:48;;;;;;;1999.90;999.90;;;9.60;99.90;;;;;;5033274;28;20060;-77
2023/04/07 08:37:13;;;;;;;1999.90;999.90;;;9.30;99.90;;;;;;5026954;28;20487;-81
2023/04/07 08:39:39;;;;;;;1999.90;999.90;;;9.70;99.90;;;;;;5021129;28;20042;-82
2023/04/07 08:42:07;;;;;;;1999.90;999.90;;;10.10;99.90;;;;;;5030795;28;20041;-82
2023/04/07 08:44:34;;;;;;;1999.90;999.90;;;10.20;99.90;;;;;;5029562;28;20079;-78
2023/04/07 08:47:02;;;;;;;1999.90;999.90;;;10.40;99.90;;;;;;5030229;28;20492;-81
2023/04/07 08:49:31;;;;;;;1999.90;999.90;;;10.20;99.90;;;;;;5029005;28;20116;-83
2023/04/07 08:51:58;;;;;;;1999.90;999.90;;;10.20;99.90;;;;;;5027887;28;20041;-80
2023/04/07 08:54:26;;;;;;;1999.90;999.90;;;10.20;99.90;;;;;;5020884;28;20030;-81
2023/04/07 08:56:52;;;;;;;1999.90;999.90;;;10.30;99.90;;;;;;5030164;28;20033;-83
2023/04/07 08:59:17;;;;;;;1999.90;999.90;;;10.60;99.90;;;;;;5026710;28;20063;-82
2023/04/07 09:01:45;;;;;;;1999.90;999.90;;;10.80;99.90;;;;;;5026678;28;20439;-78
2023/04/07 09:04:11;;;;;;;1999.90;999.90;;;11.00;99.90;;;;;;5024083;28;20084;-78
2023/04/07 09:06:37;;;;;;;1999.90;999.90;;;11.40;99.90;;;;;;5008999;28;20049;-82
2023/04/07 09:09:06;;;;;;;1999.90;999.90;;;11.50;99.90;;;;;;5030731;28;20034;-79
2023/04/07 09:11:36;;;;;;;1999.90;999.90;;;11.20;99.90;;;;;;5034423;28;20052;-77
2023/04/07 09:14:01;;;;;;;1999.90;999.90;;;11.10;99.90;;;;;;5040708;28;20065;-80
2023/04/07 09:16:29;;;;;;;1999.90;999.90;;;11.00;99.90;;;;;;5030965;28;20315;-81
2023/04/07 09:18:55;;;;;;;1999.90;999.90;;;10.70;99.90;;;;;;5029503;28;20635;-82
2023/04/07 09:21:21;;;;;;;1999.90;999.90;;;10.70;99.90;;;;;;5029900;28;20132;-82
2023/04/07 09:23:47;;;;;;;1999.90;999.90;;;10.70;99.90;;;;;;5026631;28;20044;-82
2023/04/07 09:26:22;;;;;;;1999.90;999.90;;;10.70;99.90;;;;;;5028504;28;20825;-83
2023/04/07 09:28:59;;;;;;;1999.90;999.90;;;10.40;99.90;;;;;;5029589;28;20037;-80
2023/04/07 09:31:45;;;;;;;1999.90;999.90;;;9.80;99.90;;;;;;5046650;28;20030;-80
2023/04/07 09:34:32;;;;;;;1999.90;999.90;;;10.00;99.90;;;;;;5027684;28;20033;-81
2023/04/07 09:36:58;;;;;;;1999.90;999.90;;;9.80;99.90;;;;;;5026199;28;20032;-74
2023/04/07 09:39:24;;;;;;;1999.90;999.90;;;9.90;99.90;;;;;;5028464;28;20030;-74
2023/04/07 09:41:50;;;;;;;1999.90;999.90;;;9.80;99.90;;;;;;5027429;28;20048;-74
2023/04/07 09:44:18;;;;;;;1999.90;999.90;;;9.60;99.90;;;;;;5030173;28;20030;-74
2023/04/07 09:46:51;;;;;;;1999.90;999.90;;;9.80;99.90;;;;;;5029172;28;20144;-76
2023/04/07 09:49:19;;;;;;;1999.90;999.90;;;9.70;99.90;;;;;;5033412;28;20514;-76
2023/04/07 09:51:59;;;;;;;1999.90;999.90;;;10.00;99.90;;;;;;5031359;28;20048;-74
2023/04/07 09:54:32;;;;;;;;;;;10.50;99.90;;;;;;5028373;28;20112;-80
2023/04/07 09:57:00;;;;;;;1999.90;999.90;;;10.60;99.90;;;;;;5024654;28;19909;-78
2023/04/07 09:59:30;;;;;;;1999.90;999.90;;;11.10;99.90;;;;;;5025800;28;20040;-79
2023/04/07 10:01:55;;;;;;;1999.90;999.90;;;11.70;99.90;;;;;;5029806;28;20037;-79
2023/04/07 10:04:22;;;;;;;1999.90;999.90;;;11.90;99.90;;;;;;5027229;28;20033;-79
2023/04/07 10:06:49;;;;;;;1999.90;999.90;;;11.80;99.90;;;;;;5020401;28;20113;-81
2023/04/07 10:09:16;;;;;;;1999.90;999.90;;;11.80;99.90;;;;;;5029014;28;20033;-78
2023/04/07 10:11:42;;;;;;;1999.90;999.90;;;11.90;99.90;;;;;;5028366;28;20534;-78
2023/04/07 10:14:12;;;;;;;1999.90;999.90;;;12.10;99.90;;;;;;5026542;28;20099;-79
2023/04/07 10:16:38;;;;;;;1999.90;999.90;;;11.90;99.90;;;;;;5023065;28;20040;-79
2023/04/07 10:19:05;;;;;;;1999.90;999.90;;;11.20;99.90;;;;;;5024901;28;20180;-77
2023/04/07 10:21:36;;;;;;;1999.90;999.90;;;11.00;99.90;;;;;;5025563;28;20059;-81
2023/04/07 10:24:19;;;;;;;1999.90;999.90;;;10.90;99.90;;;;;;5029096;28;20037;-77
2023/04/07 10:26:50;;;;;;;1999.90;999.90;;;10.50;99.90;;;;;;5032784;28;20025;-77
2023/04/07 10:29:18;;;;;;;1999.90;999.90;;;10.70;99.90;;;;;;5033112;28;20063;-78
2023/04/07 10:31:45;;;;;;;1999.90;999.90;;;11.20;99.90;;;;;;5033500;28;20021;-74
2023/04/07 10:34:11;;;;;;;1999.90;999.90;;;11.50;99.90;;;;;;5029094;28;20061;-75
2023/04/07 10:37:12;;;;;;;1999.90;999.90;;;11.30;99.90;;;;;;5030271;28;20075;-75
2023/04/07 10:39:38;;;;;;;1999.90;999.90;;;11.40;99.90;;;;;;5030771;28;20041;-75
2023/04/07 10:42:04;;;;;;;1999.90;999.90;;;11.70;99.90;;;;;;5029364;28;20041;-76
2023/04/07 10:44:41;;;;;;;1999.90;999.90;;;11.80;99.90;;;;;;5027989;28;20103;-78
2023/04/07 10:47:07;;;;;;;1999.90;999.90;;;11.40;99.90;;;;;;5026107;28;20029;-74
2023/04/07 10:49:33;;;;;;;1999.90;999.90;;;11.50;99.90;;;;;;5017777;28;21162;-75
2023/04/07 10:52:11;;;;;;;1999.90;999.90;;;11.10;99.90;;;;;;5030938;28;20033;-74
2023/04/07 10:54:37;;;;;;;1999.90;999.90;;;12.00;99.90;;;;;;5031196;28;20025;-77
2023/04/07 10:57:04;;;;;;;1999.90;999.90;;;12.50;99.90;;;;;;5034014;28;20120;-76
2023/04/07 10:59:30;;;;;;;1999.90;999.90;;;12.40;99.90;;;;;;5032315;28;20175;-74
2023/04/07 11:02:15;;;;;;;1999.90;999.90;;;13.80;99.90;;;;;;5025444;28;20026;-75
2023/04/07 11:04:42;;;;;;;1999.90;999.90;;;14.30;99.90;;;;;;5030987;28;20025;-75
2023/04/07 11:07:09;;;;;;;1999.90;999.90;;;14.60;90.50;;;;;;5037130;28;20061;-74
2023/04/07 11:09:35;;;;;;;1999.90;999.90;;;14.50;68.30;;;;;;5036402;28;20025;-74
2023/04/07 11:12:01;;;;;;;1999.90;999.90;;;15.00;68.40;;;;;;5035103;28;20117;-74
2023/04/07 11:14:31;;;;;;;1999.90;999.90;;;14.50;63.60;;;;;;5033941;28;20061;-74
2023/04/07 11:17:00;;;;;;;1999.90;999.90;;;14.40;64.50;;;;;;5034234;28;20369;-74
2023/04/07 11:19:26;;;;;;;1999.90;999.90;;;14.20;59.70;;;;;;5036682;28;20037;-74
2023/04/07 11:22:15;;;;;;;1999.90;999.90;;;13.80;62.70;;;;;;5033612;28;20038;-74
2023/04/07 11:24:41;;;;;;;1999.90;999.90;;;14.30;64.10;;;;;;5032610;28;20419;-74
2023/04/07 11:27:12;;;;;;;1999.90;999.90;;;14.50;61.20;;;;;;5034712;28;20025;-75
2023/04/07 11:29:38;;;;;;;1999.90;999.90;;;14.60;59.50;;;;;;5037384;28;20086;-74
2023/04/07 11:32:04;;;;;;;1999.90;999.90;;;15.40;59.10;;;;;;5034485;28;20037;-73
2023/04/07 11:34:31;;;;;;;1999.90;999.90;;;15.10;54.40;;;;;;5031731;28;20874;-73
2023/04/07 11:37:17;;;;;;;1999.90;999.90;;;14.70;54.80;;;;;;5031677;28;20041;-73
2023/04/07 11:39:45;;;;;;;1999.90;999.90;;;14.40;59.30;;;;;;5041078;28;20087;-74
2023/04/07 11:42:10;;;;;;;1999.90;999.90;;;14.60;57.00;;;;;;5032815;28;20040;-73
2023/04/07 11:44:44;;;;;;;1999.90;999.90;;;14.80;56.10;;;;;;5043498;28;20025;-74
2023/04/07 11:47:10;;;;;;;1999.90;999.90;;;14.50;56.80;;;;;;5033734;28;20033;-76
2023/04/07 11:49:44;;;;;;;1999.90;999.90;;;14.40;58.10;;;;;;5032130;28;20402;-74
2023/04/07 11:52:10;;;;;;;1999.90;999.90;;;14.20;60.90;;;;;;5030045;28;20033;-74
2023/04/07 11:54:47;;;;;;;1999.90;999.90;;;14.20;60.40;;;;;;5033620;28;20114;-75
2023/04/07 11:57:13;;;;;;;1999.90;999.90;;;13.50;58.20;;;;;;5029221;28;20507;-75
2023/04/07 11:59:40;;;;;;;1999.90;999.90;;;13.60;59.50;;;;;;5030890;28;20522;-76
2023/04/07 12:02:06;;;;;;;1999.90;999.90;;;13.10;60.30;;;;;;5029263;28;20029;-74
2023/04/07 12:04:32;;;;;;;1999.90;999.90;;;13.10;61.70;;;;;;5034552;28;20149;-73
2023/04/07 12:07:09;;;;;;;1999.90;999.90;;;13.00;61.90;;;;;;5030249;28;20117;-72